Time;durP1;ratioP1;P1;durP2;ratioP2;P2;SDS_P1;SDS_P2;PMS_P1;PMS_P2;Temp;Humidity;BMP_temperature;BMP_pressure;BME280_temperature;BME280_humidity;BME280_pressure;Samples;Min_cycle;Max_cycle;Signal;HPM_P1;HPM_P2
2022/10/05 00:01:05;;;;;;;3.70;2.20;;;;;;;;;;10235560;28;20184;-84
2022/10/05 00:06:11;;;;;;;3.42;2.78;;;;;;;;;;10249799;28;20111;-84
2022/10/05 00:11:15;;;;;;;4.22;2.67;;;;;;;;;;10215876;29;20048;-84
2022/10/05 00:16:21;;;;;;;3.03;2.50;;;;;;;;;;10215661;29;20046;-84
2022/10/05 00:21:26;;;;;;;3.13;2.20;;;;;;;;;;10201200;29;20064;-84
2022/10/05 00:26:33;;;;;;;4.18;2.50;;;;;;;;;;10223559;28;20053;-84
2022/10/05 00:31:38;;;;;;;3.38;2.35;;;;;;;;;;10238919;28;20337;-84
2022/10/05 00:36:41;;;;;;;3.65;2.28;;;;;;;;;;10230185;28;20509;-84
2022/10/05 00:42:04;;;;;;;3.60;2.45;;;;;;;;;;10247409;28;20528;-84
2022/10/05 00:47:20;;;;;;;3.10;2.17;;;;;;;;;;10258237;28;20588;-84
2022/10/05 00:52:32;;;;;;;3.13;2.15;;;;;;;;;;10244580;28;20366;-84
2022/10/05 00:57:47;;;;;;;3.08;2.10;;;;;;;;;;10222850;28;20086;-83
2022/10/05 01:02:59;;;;;;;2.93;2.30;;;;;;;;;;10232449;28;20059;-84
2022/10/05 01:08:09;;;;;;;3.00;1.95;;;;;;;;;;10238001;28;20422;-84
2022/10/05 01:13:21;;;;;;;4.70;2.20;;;;;;;;;;10229115;28;20040;-84
2022/10/05 01:18:33;;;;;;;3.70;1.67;;;;;;;;;;10250240;28;20051;-85
2022/10/05 01:24:07;;;;;;;3.05;2.05;;;;;;;;;;10206740;29;20058;-84
2022/10/05 01:29:18;;;;;;;2.55;1.70;;;;;;;;;;10220122;29;20462;-85
2022/10/05 01:34:28;;;;;;;3.45;1.83;;;;;;;;;;10212079;29;20505;-84
2022/10/05 01:39:45;;;;;;;3.85;1.92;;;;;;;;;;10212024;29;20040;-84
2022/10/05 01:45:23;;;;;;;2.30;1.75;;;;;;;;;;10211848;29;20039;-84
2022/10/05 01:50:32;;;;;;;2.00;1.55;;;;;;;;;;10242628;28;20075;-84
2022/10/05 01:55:40;;;;;;;3.05;1.80;;;;;;;;;;10243288;28;20043;-84
2022/10/05 02:00:53;;;;;;;1.70;1.42;;;;;;;;;;10235931;28;20102;-84
2022/10/05 02:06:01;;;;;;;2.50;1.65;;;;;;;;;;10227359;29;20044;-84
2022/10/05 02:11:08;;;;;;;2.22;1.55;;;;;;;;;;10231253;28;20123;-84
2022/10/05 02:16:18;;;;;;;1.25;1.15;;;;;;;;;;10239822;28;20135;-84
2022/10/05 02:21:23;;;;;;;2.03;1.25;;;;;;;;;;10259169;28;20039;-84
2022/10/05 02:26:28;;;;;;;1.60;1.50;;;;;;;;;;10243908;28;20051;-83
2022/10/05 02:31:48;;;;;;;1.83;1.27;;;;;;;;;;10227615;28;20050;-84
2022/10/05 02:37:01;;;;;;;2.72;1.50;;;;;;;;;;10218111;29;20054;-84
2022/10/05 02:42:14;;;;;;;3.03;1.30;;;;;;;;;;10242114;28;20048;-84
2022/10/05 02:47:32;;;;;;;1.50;1.40;;;;;;;;;;10212413;28;20048;-85
2022/10/05 02:52:43;;;;;;;1.85;1.20;;;;;;;;;;10209875;28;20055;-84
2022/10/05 02:57:53;;;;;;;2.88;1.80;;;;;;;;;;10233042;28;20040;-84
2022/10/05 03:03:06;;;;;;;1.83;1.45;;;;;;;;;;10240272;28;20107;-84
2022/10/05 03:08:15;;;;;;;3.15;1.50;;;;;;;;;;10224282;28;20115;-84
2022/10/05 03:13:25;;;;;;;2.22;1.48;;;;;;;;;;10235856;28;20044;-84
2022/10/05 03:18:42;;;;;;;3.55;1.33;;;;;;;;;;10250039;28;20043;-84
2022/10/05 03:23:58;;;;;;;1.95;1.60;;;;;;;;;;10241586;28;20039;-84
2022/10/05 03:29:04;;;;;;;;;;;;;;;;;;10220063;28;20070;-84
2022/10/05 03:34:16;;;;;;;1.65;1.30;;;;;;;;;;10245691;28;20040;-84
2022/10/05 03:39:30;;;;;;;2.08;1.42;;;;;;;;;;10209223;29;20589;-84
2022/10/05 03:44:42;;;;;;;1.40;1.30;;;;;;;;;;10233312;28;20047;-84
2022/10/05 03:50:03;;;;;;;1.60;1.30;;;;;;;;;;10201713;28;20039;-84
2022/10/05 03:55:17;;;;;;;2.22;1.52;;;;;;;;;;10219195;28;20040;-84
2022/10/05 04:00:23;;;;;;;4.18;1.63;;;;;;;;;;10252077;28;20277;-84
2022/10/05 04:05:38;;;;;;;1.73;1.50;;;;;;;;;;10223949;28;20105;-84
2022/10/05 04:10:46;;;;;;;2.10;1.67;;;;;;;;;;10218393;28;20047;-84
2022/10/05 04:15:58;;;;;;;3.05;1.92;;;;;;;;;;10242311;28;20662;-84
2022/10/05 04:21:10;;;;;;;3.10;1.67;;;;;;;;;;10257839;28;20035;-84
2022/10/05 04:26:18;;;;;;;2.30;1.80;;;;;;;;;;10237348;28;20043;-84
2022/10/05 04:31:41;;;;;;;1.90;1.60;;;;;;;;;;10247131;28;20043;-84
2022/10/05 04:36:52;;;;;;;1.67;1.55;;;;;;;;;;10233912;28;20299;-85
2022/10/05 04:42:08;;;;;;;1.98;1.77;;;;;;;;;;10255226;28;20525;-84
2022/10/05 04:47:47;;;;;;;1.70;1.50;;;;;;;;;;10230392;28;20043;-85
2022/10/05 04:53:01;;;;;;;2.63;1.90;;;;;;;;;;10221769;28;20095;-84
2022/10/05 04:58:18;;;;;;;1.67;1.45;;;;;;;;;;10258179;28;20540;-84
2022/10/05 05:03:41;;;;;;;3.10;1.70;;;;;;;;;;10248589;28;20040;-84
2022/10/05 05:09:04;;;;;;;3.25;1.55;;;;;;;;;;10227991;28;20043;-85
2022/10/05 05:14:37;;;;;;;1.90;1.48;;;;;;;;;;10238386;28;20049;-84
2022/10/05 05:19:51;;;;;;;2.85;1.73;;;;;;;;;;10229347;28;20639;-84
2022/10/05 05:25:16;;;;;;;2.67;1.75;;;;;;;;;;10226971;28;20172;-85
2022/10/05 05:30:22;;;;;;;2.25;2.05;;;;;;;;;;10237375;29;20090;-84
2022/10/05 05:36:04;;;;;;;1.63;1.33;;;;;;;;;;10224756;29;20044;-85
2022/10/05 05:41:12;;;;;;;2.13;1.65;;;;;;;;;;10244331;28;20462;-84
2022/10/05 05:46:25;;;;;;;1.75;1.33;;;;;;;;;;10230895;28;20502;-85
2022/10/05 05:51:42;;;;;;;1.83;1.23;;;;;;;;;;10230342;28;20111;-85
2022/10/05 05:56:51;;;;;;;1.88;1.60;;;;;;;;;;10228697;29;20639;-85
2022/10/05 06:02:04;;;;;;;2.28;1.45;;;;;;;;;;10226716;28;20052;-88
2022/10/05 06:07:15;;;;;;;1.90;1.70;;;;;;;;;;10227632;28;20071;-88
2022/10/05 06:12:24;;;;;;;2.65;2.08;;;;;;;;;;10243854;28;20047;-89
2022/10/05 06:17:35;;;;;;;3.78;2.35;;;;;;;;;;10236810;28;20069;-89
2022/10/05 06:22:44;;;;;;;3.08;2.10;;;;;;;;;;10245928;28;20183;-89
2022/10/05 06:28:03;;;;;;;2.60;1.70;;;;;;;;;;10245133;28;20051;-90
2022/10/05 06:33:18;;;;;;;2.33;1.70;;;;;;;;;;10241765;28;20038;-89
2022/10/05 06:38:40;;;;;;;3.70;1.52;;;;;;;;;;10214639;28;20036;-89
2022/10/05 06:43:53;;;;;;;3.50;1.75;;;;;;;;;;10246884;28;20043;-89
2022/10/05 06:49:20;;;;;;;2.38;1.63;;;;;;;;;;10238345;28;20043;-88
2022/10/05 06:54:52;;;;;;;3.45;1.77;;;;;;;;;;10227774;29;20063;-90
2022/10/05 07:00:01;;;;;;;1.48;1.33;;;;;;;;;;10245791;28;20167;-88
2022/10/05 07:05:43;;;;;;;2.00;1.30;;;;;;;;;;10229109;28;20603;-89
2022/10/05 07:10:59;;;;;;;2.53;1.58;;;;;;;;;;10252292;28;20498;-88
2022/10/05 07:16:13;;;;;;;2.25;1.70;;;;;;;;;;10244250;28;20042;-89
2022/10/05 07:21:30;;;;;;;1.20;0.90;;;;;;;;;;10241364;28;20457;-89
2022/10/05 07:26:40;;;;;;;1.05;0.82;;;;;;;;;;10242469;28;20501;-89
2022/10/05 07:31:50;;;;;;;1.27;0.98;;;;;;;;;;10243588;28;20097;-89
2022/10/05 07:42:30;;;;;;;2.00;1.02;;;;;;;;;;10251689;28;20051;-88
2022/10/05 07:47:39;;;;;;;1.92;1.00;;;;;;;;;;10250705;28;20043;-88
2022/10/05 07:52:48;;;;;;;1.20;1.10;;;;;;;;;;10243461;28;20043;-89
2022/10/05 07:58:03;;;;;;;0.88;0.88;;;;;;;;;;10249238;28;20047;-89
2022/10/05 08:03:14;;;;;;;1.10;0.93;;;;;;;;;;10232051;28;20413;-89
2022/10/05 08:08:25;;;;;;;1.10;1.00;;;;;;;;;;10256215;28;20101;-87
2022/10/05 08:13:34;;;;;;;1.30;1.20;;;;;;;;;;10251173;28;20075;-90
2022/10/05 08:18:48;;;;;;;1.42;1.27;;;;;;;;;;10257983;28;20062;-89
2022/10/05 08:23:56;;;;;;;2.55;1.63;;;;;;;;;;10229758;28;20781;-90
2022/10/05 08:29:10;;;;;;;1.40;1.23;;;;;;;;;;10241649;28;20086;-88
2022/10/05 08:34:25;;;;;;;2.43;1.73;;;;;;;;;;10236335;28;20051;-89
2022/10/05 08:39:33;;;;;;;2.22;1.73;;;;;;;;;;10240781;28;20289;-89
2022/10/05 08:45:07;;;;;;;1.50;1.23;;;;;;;;;;10250132;28;20382;-88
2022/10/05 08:50:31;;;;;;;1.38;1.27;;;;;;;;;;10248780;28;20126;-88
2022/10/05 08:55:40;;;;;;;3.50;1.45;;;;;;;;;;10249030;28;20039;-89
2022/10/05 09:00:54;;;;;;;2.88;1.60;;;;;;;;;;10230280;28;20061;-88
2022/10/05 09:06:32;;;;;;;2.13;1.63;;;;;;;;;;10237037;28;20059;-88
2022/10/05 09:11:37;;;;;;;1.95;1.55;;;;;;;;;;10231787;28;20048;-88
2022/10/05 09:16:56;;;;;;;2.20;1.58;;;;;;;;;;10247902;28;20076;-90
2022/10/05 09:22:12;;;;;;;1.95;1.65;;;;;;;;;;10222949;29;20054;-87
2022/10/05 09:27:17;;;;;;;2.10;1.92;;;;;;;;;;10241708;28;20047;-88
2022/10/05 09:32:59;;;;;;;2.83;2.00;;;;;;;;;;10220807;28;20137;-88
2022/10/05 09:38:18;;;;;;;2.53;2.30;;;;;;;;;;10237125;28;20053;-87
2022/10/05 09:43:47;;;;;;;1.95;1.75;;;;;;;;;;10240184;28;20055;-89
2022/10/05 09:49:17;;;;;;;2.42;2.00;;;;;;;;;;10206638;28;20089;-88
2022/10/05 09:55:01;;;;;;;3.33;2.58;;;;;;;;;;10244748;28;20047;-88
2022/10/05 10:00:30;;;;;;;2.72;2.17;;;;;;;;;;10237637;28;20606;-87
2022/10/05 10:06:02;;;;;;;2.90;2.60;;;;;;;;;;10212911;29;20098;-88
2022/10/05 10:11:23;;;;;;;2.55;2.25;;;;;;;;;;10233949;28;20149;-89
2022/10/05 10:16:37;;;;;;;3.10;2.50;;;;;;;;;;10235502;28;20045;-89
2022/10/05 10:22:05;;;;;;;1.90;1.70;;;;;;;;;;10244196;28;20054;-89
2022/10/05 10:27:23;;;;;;;2.35;2.05;;;;;;;;;;10182665;28;20047;-89
2022/10/05 10:32:44;;;;;;;3.05;2.00;;;;;;;;;;10252964;28;20527;-88
2022/10/05 10:38:28;;;;;;;2.75;1.92;;;;;;;;;;10213458;29;20050;-88
2022/10/05 10:44:03;;;;;;;3.60;1.80;;;;;;;;;;10252421;28;20051;-88
2022/10/05 10:49:25;;;;;;;2.30;1.80;;;;;;;;;;10248518;28;20110;-89
2022/10/05 10:55:10;;;;;;;1.98;1.40;;;;;;;;;;10244742;28;20120;-87
2022/10/05 11:00:45;;;;;;;1.17;1.08;;;;;;;;;;10189328;29;20048;-86
2022/10/05 11:06:16;;;;;;;2.17;1.80;;;;;;;;;;10228037;28;20051;-88
2022/10/05 11:11:38;;;;;;;2.70;1.80;;;;;;;;;;10229548;28;20047;-88
2022/10/05 11:17:12;;;;;;;5.03;2.70;;;;;;;;;;10222237;28;20245;-88
2022/10/05 11:22:38;;;;;;;2.65;1.90;;;;;;;;;;10239728;28;20047;-87
2022/10/05 11:27:59;;;;;;;1.65;1.48;;;;;;;;;;10261229;28;20047;-88
2022/10/05 11:33:41;;;;;;;2.05;1.50;;;;;;;;;;10239592;28;20514;-85
2022/10/05 11:39:11;;;;;;;3.30;2.47;;;;;;;;;;10247280;28;20114;-88
2022/10/05 11:44:49;;;;;;;3.15;2.05;;;;;;;;;;10259525;28;20049;-86
2022/10/05 11:50:04;;;;;;;3.50;2.40;;;;;;;;;;10221993;28;20260;-87
2022/10/05 11:55:19;;;;;;;2.50;2.17;;;;;;;;;;10253415;28;20059;-88
2022/10/05 12:00:25;;;;;;;2.27;1.57;;;;;;;;;;10259029;28;20045;-88
2022/10/05 12:05:34;;;;;;;1.58;1.23;;;;;;;;;;10252194;28;20043;-88
2022/10/05 12:10:51;;;;;;;2.92;2.10;;;;;;;;;;10245184;28;20067;-86
2022/10/05 12:15:59;;;;;;;3.28;1.30;;;;;;;;;;10242609;28;20053;-88
2022/10/05 12:21:07;;;;;;;1.63;1.17;;;;;;;;;;10248043;28;20051;-88
2022/10/05 12:26:14;;;;;;;2.00;1.20;;;;;;;;;;10232756;29;20413;-88
2022/10/05 12:31:32;;;;;;;1.63;1.00;;;;;;;;;;10222509;28;20051;-87
2022/10/05 12:36:43;;;;;;;2.15;1.85;;;;;;;;;;10227694;28;20043;-87
2022/10/05 12:42:17;;;;;;;1.73;1.50;;;;;;;;;;10243206;28;20502;-87
2022/10/05 12:47:29;;;;;;;2.70;1.38;;;;;;;;;;10228508;28;20783;-88
2022/10/05 12:52:54;;;;;;;1.98;1.27;;;;;;;;;;10251329;28;20046;-86
2022/10/05 12:58:07;;;;;;;2.05;1.50;;;;;;;;;;10248864;28;20143;-88
2022/10/05 13:03:17;;;;;;;1.20;1.10;;;;;;;;;;10248126;28;20391;-87
2022/10/05 13:08:29;;;;;;;2.08;1.25;;;;;;;;;;10235556;28;20477;-88
2022/10/05 13:13:41;;;;;;;2.22;1.88;;;;;;;;;;10235894;29;20050;-88
2022/10/05 13:18:54;;;;;;;2.63;2.10;;;;;;;;;;10241734;28;20506;-88
2022/10/05 13:24:04;;;;;;;3.10;1.70;;;;;;;;;;10230426;28;20047;-87
2022/10/05 13:29:17;;;;;;;3.35;2.10;;;;;;;;;;10250292;28;20536;-88
2022/10/05 13:34:27;;;;;;;2.80;1.95;;;;;;;;;;10230453;28;20066;-88
2022/10/05 13:39:44;;;;;;;2.58;2.10;;;;;;;;;;10259822;28;20043;-86
2022/10/05 13:44:53;;;;;;;2.90;2.10;;;;;;;;;;10224511;28;20063;-88
2022/10/05 13:50:01;;;;;;;3.20;2.22;;;;;;;;;;10253412;28;20566;-88
2022/10/05 13:55:18;;;;;;;4.78;2.70;;;;;;;;;;10224145;29;20047;-90
2022/10/05 14:00:22;;;;;;;3.60;2.42;;;;;;;;;;10244649;28;20045;-87
2022/10/05 14:05:33;;;;;;;3.72;2.92;;;;;;;;;;10267684;28;20074;-88
2022/10/05 14:10:42;;;;;;;4.30;2.40;;;;;;;;;;10230356;28;20043;-86
2022/10/05 14:15:58;;;;;;;3.55;2.40;;;;;;;;;;10218350;29;20405;-86
2022/10/05 14:21:04;;;;;;;1.92;1.30;;;;;;;;;;10233404;28;20066;-86
2022/10/05 14:26:18;;;;;;;2.08;1.75;;;;;;;;;;10241225;28;20122;-86
2022/10/05 14:31:28;;;;;;;1.70;1.42;;;;;;;;;;10227566;28;20053;-87
2022/10/05 14:36:38;;;;;;;1.30;1.20;;;;;;;;;;10241626;28;20054;-86
2022/10/05 14:41:49;;;;;;;2.22;1.70;;;;;;;;;;10245926;28;20077;-86
2022/10/05 14:46:55;;;;;;;2.42;2.05;;;;;;;;;;10222090;29;20058;-87
2022/10/05 14:51:58;;;;;;;2.17;1.75;;;;;;;;;;10220575;28;20508;-87
2022/10/05 14:57:15;;;;;;;2.55;1.50;;;;;;;;;;10247023;28;20086;-86
2022/10/05 15:02:46;;;;;;;2.78;1.67;;;;;;;;;;10232161;28;20331;-87
2022/10/05 15:07:56;;;;;;;2.10;1.70;;;;;;;;;;10240616;28;20506;-87
2022/10/05 15:13:13;;;;;;;2.05;1.70;;;;;;;;;;10220485;28;20071;-87
2022/10/05 15:18:25;;;;;;;2.33;2.10;;;;;;;;;;10248150;28;20079;-87
2022/10/05 15:23:36;;;;;;;1.58;1.48;;;;;;;;;;10233534;28;20075;-87
2022/10/05 15:28:47;;;;;;;2.17;1.48;;;;;;;;;;10251109;28;20047;-87
2022/10/05 15:33:57;;;;;;;1.75;1.55;;;;;;;;;;10255105;28;20361;-88
2022/10/05 15:39:09;;;;;;;1.33;1.20;;;;;;;;;;10231828;29;20499;-87
2022/10/05 15:44:27;;;;;;;2.63;1.15;;;;;;;;;;10227408;28;20057;-87
2022/10/05 15:49:38;;;;;;;1.75;1.30;;;;;;;;;;10248515;28;20051;-87
2022/10/05 15:55:20;;;;;;;1.83;1.25;;;;;;;;;;10246059;28;20642;-86
2022/10/05 16:00:26;;;;;;;1.52;1.33;;;;;;;;;;10240875;28;20417;-86
2022/10/05 16:10:59;;;;;;;0.52;0.50;;;;;;;;;;10265604;28;19922;-86
2022/10/05 16:16:20;;;;;;;3.47;1.00;;;;;;;;;;10226883;28;20050;-86
2022/10/05 16:21:31;;;;;;;1.42;0.80;;;;;;;;;;10256657;28;20055;-86
2022/10/05 16:26:49;;;;;;;1.38;0.93;;;;;;;;;;10240469;28;20051;-85
2022/10/05 16:32:03;;;;;;;0.95;0.52;;;;;;;;;;10256513;28;20061;-86
2022/10/05 16:37:12;;;;;;;0.77;0.73;;;;;;;;;;10256273;28;20414;-86
2022/10/05 16:42:37;;;;;;;0.57;0.57;;;;;;;;;;10239793;28;20130;-86
2022/10/05 16:47:50;;;;;;;0.57;0.57;;;;;;;;;;10246641;28;20054;-86
2022/10/05 16:52:57;;;;;;;0.95;0.60;;;;;;;;;;10245602;28;20059;-86
2022/10/05 16:58:05;;;;;;;1.27;0.57;;;;;;;;;;10249178;28;20067;-87
2022/10/05 17:03:26;;;;;;;0.77;0.60;;;;;;;;;;10257396;28;20050;-86
2022/10/05 17:09:10;;;;;;;0.82;0.65;;;;;;;;;;10255705;28;20039;-85
2022/10/05 17:14:27;;;;;;;0.60;0.60;;;;;;;;;;10244805;28;20082;-86
2022/10/05 17:19:48;;;;;;;0.50;0.50;;;;;;;;;;10231688;28;20044;-87
2022/10/05 17:24:58;;;;;;;0.65;0.60;;;;;;;;;;10240373;28;20137;-86
2022/10/05 17:30:23;;;;;;;1.00;0.52;;;;;;;;;;10229816;28;20048;-86
2022/10/05 17:35:57;;;;;;;0.65;0.60;;;;;;;;;;10230562;28;20683;-86
2022/10/05 17:41:15;;;;;;;0.93;0.65;;;;;;;;;;10233850;28;20043;-88
2022/10/05 17:46:38;;;;;;;0.90;0.60;;;;;;;;;;10269158;28;20469;-87
2022/10/05 17:57:28;;;;;;;1.65;0.65;;;;;;;;;;10262295;28;20102;-89
2022/10/05 18:02:49;;;;;;;1.30;0.60;;;;;;;;;;10243948;29;20051;-86
2022/10/05 18:08:23;;;;;;;0.82;0.70;;;;;;;;;;10227418;28;20082;-87
2022/10/05 18:13:36;;;;;;;1.05;0.73;;;;;;;;;;10239439;28;20536;-86
2022/10/05 18:18:58;;;;;;;1.00;0.70;;;;;;;;;;10209001;29;20062;-88
2022/10/05 18:24:27;;;;;;;1.55;0.70;;;;;;;;;;10247451;28;20449;-87
2022/10/05 18:30:02;;;;;;;1.00;0.57;;;;;;;;;;10263053;28;20050;-87
2022/10/05 18:35:12;;;;;;;1.38;0.80;;;;;;;;;;10235214;29;20073;-87
2022/10/05 18:40:30;;;;;;;1.77;0.80;;;;;;;;;;10246772;28;20513;-86
2022/10/05 18:45:43;;;;;;;1.30;0.73;;;;;;;;;;10236745;29;20058;-87
2022/10/05 18:50:53;;;;;;;0.65;0.50;;;;;;;;;;10229967;28;20050;-86
2022/10/05 18:56:03;;;;;;;1.67;0.50;;;;;;;;;;10258356;28;20544;-88
2022/10/05 19:01:47;;;;;;;0.50;0.50;;;;;;;;;;10257351;28;20079;-88
2022/10/05 19:07:01;;;;;;;0.80;0.60;;;;;;;;;;10219855;28;20601;-88
2022/10/05 19:12:14;;;;;;;0.82;0.60;;;;;;;;;;10260548;28;20074;-88
2022/10/05 19:17:25;;;;;;;0.95;0.68;;;;;;;;;;10246686;28;20480;-85
2022/10/05 19:22:41;;;;;;;0.60;0.55;;;;;;;;;;10253800;28;20050;-87
2022/10/05 19:27:49;;;;;;;;;;;;;;;;;;10261671;28;20051;-87
2022/10/05 19:33:17;;;;;;;2.63;0.47;;;;;;;;;;10246083;28;19922;-88
2022/10/05 19:38:28;;;;;;;0.60;0.60;;;;;;;;;;10261215;28;20051;-88
2022/10/05 19:43:56;;;;;;;0.60;0.50;;;;;;;;;;10253141;28;20127;-87
2022/10/05 19:49:00;;;;;;;0.73;0.50;;;;;;;;;;10228301;28;20036;-87
2022/10/05 19:54:14;;;;;;;1.05;0.50;;;;;;;;;;10246430;28;20043;-86
2022/10/05 19:59:25;;;;;;;1.98;0.65;;;;;;;;;;10266820;28;20126;-86
2022/10/05 20:04:37;;;;;;;1.98;0.88;;;;;;;;;;10257546;28;20054;-88
2022/10/05 20:09:56;;;;;;;0.63;0.60;;;;;;;;;;10265901;28;20040;-88
2022/10/05 20:20:41;;;;;;;0.65;0.65;;;;;;;;;;10266886;28;20399;-88
2022/10/05 20:27:00;;;;;;;1.10;1.00;;;;;;;;;;10244493;28;20043;-87
2022/10/05 20:31:13;;;;;;;2.53;0.80;;;;;;;;;;10250584;28;20067;-88
2022/10/05 20:36:19;;;;;;;3.63;1.10;;;;;;;;;;10257032;28;20055;-88
2022/10/05 20:41:23;;;;;;;1.30;1.08;;;;;;;;;;10251032;28;20054;-88
2022/10/05 20:46:29;;;;;;;1.95;1.08;;;;;;;;;;10241512;29;20514;-87
2022/10/05 20:51:33;;;;;;;1.70;0.90;;;;;;;;;;10224806;28;20107;-84
2022/10/05 20:56:36;;;;;;;0.60;0.60;;;;;;;;;;10261493;28;20048;-85
2022/10/05 21:01:46;;;;;;;1.05;0.63;;;;;;;;;;10250425;28;20089;-87
2022/10/05 21:06:51;;;;;;;1.02;0.80;;;;;;;;;;10254356;28;20102;-86
2022/10/05 21:11:57;;;;;;;0.70;0.60;;;;;;;;;;10254564;28;20043;-84
2022/10/05 21:17:03;;;;;;;1.58;0.70;;;;;;;;;;10238686;28;20039;-85
2022/10/05 21:22:07;;;;;;;1.00;0.67;;;;;;;;;;10247669;28;20054;-87
2022/10/05 21:27:11;;;;;;;1.48;0.77;;;;;;;;;;10230439;28;20074;-87
2022/10/05 21:32:16;;;;;;;1.05;0.90;;;;;;;;;;10229077;29;20139;-86
2022/10/05 21:37:19;;;;;;;2.20;1.20;;;;;;;;;;10244800;28;20075;-88
2022/10/05 21:42:23;;;;;;;2.80;0.68;;;;;;;;;;10228481;29;20051;-84
2022/10/05 21:47:30;;;;;;;1.58;0.52;;;;;;;;;;10236852;28;20070;-88
2022/10/05 21:52:35;;;;;;;1.23;0.52;;;;;;;;;;10245041;28;20138;-88
2022/10/05 21:57:40;;;;;;;0.50;0.50;;;;;;;;;;10228136;28;20043;-86
2022/10/05 22:02:45;;;;;;;4.90;1.17;;;;;;;;;;10236171;28;20506;-87
2022/10/05 22:07:48;;;;;;;2.65;0.50;;;;;;;;;;10237583;28;20078;-87
2022/10/05 22:12:52;;;;;;;0.82;0.50;;;;;;;;;;10214510;28;20071;-88
2022/10/05 22:17:57;;;;;;;2.13;0.60;;;;;;;;;;10213960;28;20083;-87
2022/10/05 22:23:00;;;;;;;2.38;0.80;;;;;;;;;;10243370;28;20143;-87
2022/10/05 22:28:05;;;;;;;1.67;0.93;;;;;;;;;;10237792;28;20549;-87
2022/10/05 22:33:11;;;;;;;2.05;0.82;;;;;;;;;;10243901;28;20476;-87
2022/10/05 22:38:14;;;;;;;1.25;0.75;;;;;;;;;;10244063;28;20051;-87
2022/10/05 22:43:18;;;;;;;1.00;0.43;;;;;;;;;;10226606;28;20047;-87
2022/10/05 22:48:23;;;;;;;0.90;0.60;;;;;;;;;;10229238;28;20043;-88
2022/10/05 22:53:26;;;;;;;3.28;0.77;;;;;;;;;;10205447;28;20160;-87
2022/10/05 22:58:30;;;;;;;1.67;0.52;;;;;;;;;;10252140;28;20102;-87
2022/10/05 23:03:35;;;;;;;3.08;0.90;;;;;;;;;;10259184;28;20040;-85
2022/10/05 23:08:39;;;;;;;3.17;0.68;;;;;;;;;;10220188;28;20051;-86
2022/10/05 23:13:42;;;;;;;5.68;1.33;;;;;;;;;;10221372;28;20063;-87
2022/10/05 23:18:50;;;;;;;1.02;0.90;;;;;;;;;;10242839;28;20039;-88
2022/10/05 23:23:54;;;;;;;0.77;0.43;;;;;;;;;;10234898;28;20051;-87
2022/10/05 23:28:58;;;;;;;2.05;0.50;;;;;;;;;;10256541;28;20071;-86
2022/10/05 23:34:03;;;;;;;0.77;0.60;;;;;;;;;;10241576;28;20035;-87
2022/10/05 23:39:06;;;;;;;2.00;0.75;;;;;;;;;;10233073;28;20474;-86
2022/10/05 23:44:09;;;;;;;1.90;0.55;;;;;;;;;;10221459;29;20050;-87
2022/10/05 23:49:14;;;;;;;1.85;0.90;;;;;;;;;;10229144;28;20063;-85
2022/10/05 23:54:18;;;;;;;1.30;0.70;;;;;;;;;;10234942;28;20797;-87
2022/10/05 23:59:21;;;;;;;1.63;1.20;;;;;;;;;;10209193;28;20070;-88
